createdAt,value
2022-10-03T00:00:14.177Z,92.56
2022-10-03T00:03:14.422Z,93.57
2022-10-03T00:05:58.158Z,92.11
2022-10-03T00:08:50.439Z,92.51
2022-10-03T00:11:31.651Z,93.54
2022-10-03T00:14:16.480Z,94.23
2022-10-03T00:16:59.750Z,94.23
2022-10-03T00:19:41.766Z,94.10
2022-10-03T00:22:25.578Z,93.93
2022-10-03T00:25:13.150Z,93.28
2022-10-03T00:27:55.067Z,93.45
2022-10-03T00:30:42.247Z,92.63
2022-10-03T00:33:25.643Z,92.90
2022-10-03T00:36:06.660Z,92.04
2022-10-03T00:39:10.615Z,93.34
2022-10-03T00:42:31.094Z,94.08
2022-10-03T00:45:35.933Z,93.22
2022-10-03T00:48:41.731Z,94.58
2022-10-03T00:51:32.371Z,94.46
2022-10-03T00:54:21.815Z,94.63
2022-10-03T00:57:12.607Z,94.89
2022-10-03T01:00:01.805Z,94.82
2022-10-03T01:02:46.789Z,94.83
2022-10-03T01:05:31.287Z,94.28
2022-10-03T01:08:33.924Z,94.54
2022-10-03T01:11:18.976Z,94.95
2022-10-03T01:14:03.707Z,94.77
2022-10-03T01:16:44.734Z,94.28
2022-10-03T01:19:36.847Z,95.11
2022-10-03T01:22:33.452Z,94.46
2022-10-03T01:25:17.999Z,94.22
2022-10-03T01:28:18.465Z,94.59
2022-10-03T01:30:57.209Z,95.63
2022-10-03T01:33:36.920Z,94.40
2022-10-03T01:36:12.301Z,94.82
2022-10-03T01:38:48.199Z,95.21
2022-10-03T01:41:28.733Z,94.85
2022-10-03T01:44:12.128Z,95.70
2022-10-03T01:46:50.958Z,95.73
2022-10-03T01:49:30.883Z,95.57
2022-10-03T01:52:10.323Z,96.12
2022-10-03T01:54:50.026Z,95.15
2022-10-03T01:57:31.877Z,94.80
2022-10-03T02:00:07.895Z,95.39
2022-10-03T02:02:49.876Z,94.02
2022-10-03T02:05:28.163Z,94.17
2022-10-03T02:08:07.263Z,94.13
2022-10-03T02:10:47.910Z,94.88
2022-10-03T02:13:26.863Z,93.62
2022-10-03T02:16:07.714Z,94.27
2022-10-03T02:18:48.098Z,93.96
2022-10-03T02:21:23.050Z,93.59
2022-10-03T02:24:17.412Z,94.17
2022-10-03T02:27:26.828Z,94.25
2022-10-03T02:30:09.382Z,93.67
2022-10-03T02:33:44.623Z,94.48
2022-10-03T02:36:44.719Z,94.52
2022-10-03T02:40:00.379Z,95.79
2022-10-03T02:42:56.678Z,94.36
2022-10-03T02:45:51.402Z,93.67
2022-10-03T02:49:04.285Z,94.17
2022-10-03T02:52:13.326Z,95.28
2022-10-03T02:54:57.253Z,95.55
2022-10-03T02:57:54.300Z,96.59
2022-10-03T03:00:39.637Z,96.78
2022-10-03T03:03:38.984Z,97.27
2022-10-03T03:06:42.966Z,96.40
2022-10-03T03:09:46.881Z,96.86
2022-10-03T03:12:55.955Z,96.73
2022-10-03T03:16:00.730Z,95.16
2022-10-03T03:18:36.609Z,96.01
2022-10-03T03:21:18.327Z,96.42
2022-10-03T03:24:06.734Z,96.67
2022-10-03T03:26:59.115Z,97.16
2022-10-03T03:29:42.703Z,97.03
2022-10-03T03:32:28.963Z,96.57
2022-10-03T03:35:17.591Z,96.52
2022-10-03T03:38:01.076Z,95.96
2022-10-03T03:40:44.694Z,95.92
2022-10-03T03:43:34.454Z,95.88
2022-10-03T03:46:15.164Z,95.61
2022-10-03T03:49:17.207Z,96.62
2022-10-03T03:52:00.825Z,96.69
2022-10-03T03:55:08.453Z,97.24
2022-10-03T03:58:07.813Z,95.96
2022-10-03T04:01:02.568Z,97.50
2022-10-03T04:03:48.659Z,97.22
2022-10-03T04:06:34.916Z,97.32
2022-10-03T04:09:25.951Z,97.46
2022-10-03T04:12:09.438Z,97.27
2022-10-03T04:15:06.334Z,97.29
2022-10-03T04:18:10.453Z,97.56
2022-10-03T04:21:10.306Z,97.53
2022-10-03T04:24:01.083Z,98.09
2022-10-03T04:26:46.499Z,99.02
2022-10-03T04:29:42.321Z,98.74
2022-10-03T04:32:28.584Z,99.11
2022-10-03T04:35:24.710Z,98.83
2022-10-03T04:38:07.348Z,98.95
2022-10-03T04:40:47.611Z,98.04
2022-10-03T04:43:34.597Z,98.61
2022-10-03T04:46:22.875Z,97.78
2022-10-03T04:49:02.503Z,96.67
2022-10-03T04:51:46.471Z,96.94
2022-10-03T04:54:30.154Z,96.67
2022-10-03T04:57:15.220Z,97.94
2022-10-03T04:59:55.149Z,97.80
2022-10-03T05:02:40.124Z,97.45
2022-10-03T05:05:23.392Z,98.19
2022-10-03T05:08:06.441Z,98.55
2022-10-03T05:11:06.115Z,99.71
2022-10-03T05:13:44.723Z,99.43
2022-10-03T05:16:25.953Z,99.48
2022-10-03T05:19:15.876Z,99.92
2022-10-03T05:21:55.826Z,98.57
2022-10-03T05:24:36.678Z,99.04
2022-10-03T05:27:19.480Z,99.14
2022-10-03T05:30:01.934Z,100.00
2022-10-03T05:32:41.142Z,100.00
2022-10-03T05:35:31.485Z,99.31
2022-10-03T05:38:26.614Z,100.00
2022-10-03T05:41:08.497Z,100.00
2022-10-03T05:43:52.235Z,99.89
2022-10-03T05:46:41.245Z,99.44
2022-10-03T05:49:49.531Z,99.15
2022-10-03T05:52:41.790Z,99.67
2022-10-03T05:55:42.875Z,100.00
2022-10-03T05:58:49.005Z,99.72
2022-10-03T06:01:42.458Z,99.79
2022-10-03T06:04:41.484Z,98.49
2022-10-03T06:07:22.562Z,98.30
2022-10-03T06:10:28.356Z,98.63
2022-10-03T06:13:13.272Z,98.78
2022-10-03T06:15:54.753Z,96.49
2022-10-03T06:19:04.203Z,95.83
2022-10-03T06:22:14.643Z,96.80
2022-10-03T06:25:13.093Z,94.69
2022-10-03T06:28:21.240Z,95.86
2022-10-03T06:31:31.829Z,95.04
2022-10-03T06:34:41.075Z,92.85
2022-10-03T06:37:51.107Z,94.03
2022-10-03T06:40:47.613Z,94.58
2022-10-03T06:43:52.635Z,93.56
2022-10-03T06:46:48.094Z,94.60
2022-10-03T06:49:32.034Z,94.24
2022-10-03T06:52:50.340Z,94.61
2022-10-03T06:56:12.815Z,96.42
2022-10-03T06:59:18.458Z,93.97
2022-10-03T07:02:19.768Z,93.04
2022-10-03T07:05:29.283Z,93.15
2022-10-03T07:08:34.079Z,93.47
2022-10-03T07:11:26.118Z,93.88
2022-10-03T07:14:34.604Z,93.27
2022-10-03T07:17:33.283Z,94.23
2022-10-03T07:20:47.014Z,93.72
2022-10-03T07:23:53.078Z,94.57
2022-10-03T07:27:00.871Z,94.94
2022-10-03T07:30:02.973Z,95.71
2022-10-03T07:33:07.171Z,94.32
2022-10-03T07:36:08.371Z,94.37
2022-10-03T07:39:05.974Z,95.53
2022-10-03T07:42:00.399Z,96.44
2022-10-03T07:45:23.854Z,97.10
2022-10-03T07:48:28.210Z,97.39
2022-10-03T07:51:12.434Z,97.87
2022-10-03T07:54:20.629Z,98.88
2022-10-03T07:57:21.177Z,99.47
2022-10-03T08:00:22.449Z,99.04
2022-10-03T08:03:34.993Z,100.00
2022-10-03T08:06:17.586Z,100.00
2022-10-03T08:09:22.558Z,100.00
2022-10-03T08:12:27.945Z,100.00
2022-10-03T08:15:10.453Z,100.00
2022-10-03T08:18:19.335Z,100.00
2022-10-03T08:20:56.022Z,100.00
2022-10-03T08:23:56.247Z,100.00
2022-10-03T08:26:52.659Z,100.00
2022-10-03T08:29:51.754Z,99.81
2022-10-03T08:32:56.459Z,100.00
2022-10-03T08:35:47.487Z,99.83
2022-10-03T08:38:36.802Z,100.00
2022-10-03T08:41:54.823Z,100.00
2022-10-03T08:45:00.214Z,100.00
2022-10-03T08:48:04.819Z,100.00
2022-10-03T08:51:02.019Z,100.00
2022-10-03T08:54:06.679Z,100.00
2022-10-03T08:56:59.087Z,100.00
2022-10-03T09:00:00.989Z,100.00
2022-10-03T09:03:33.066Z,100.00
2022-10-03T09:06:29.266Z,100.00
2022-10-03T09:09:36.568Z,100.00
2022-10-03T09:12:52.030Z,100.00
2022-10-03T09:15:52.894Z,100.00
2022-10-03T09:18:53.788Z,100.00
2022-10-03T09:22:01.117Z,100.00
2022-10-03T09:25:01.334Z,99.82
2022-10-03T09:28:10.126Z,99.13
2022-10-03T09:30:53.334Z,94.48
2022-10-03T09:34:02.921Z,94.87
2022-10-03T09:37:21.355Z,92.87
2022-10-03T09:40:26.878Z,91.24
2022-10-03T09:43:18.271Z,93.59
2022-10-03T09:46:28.359Z,94.88
2022-10-03T09:49:26.752Z,96.11
2022-10-03T09:52:22.163Z,93.02
2022-10-03T09:55:38.991Z,93.30
2022-10-03T09:58:33.255Z,94.05
2022-10-03T10:01:22.844Z,94.56
2022-10-03T10:04:54.773Z,92.06
2022-10-03T10:07:52.293Z,91.34
2022-10-03T10:11:07.001Z,91.90
2022-10-03T10:14:19.759Z,92.03
2022-10-03T10:17:18.798Z,92.02
2022-10-03T10:20:06.734Z,90.68
2022-10-03T10:23:14.272Z,89.56
2022-10-03T10:26:21.555Z,90.00
2022-10-03T10:29:29.506Z,87.73
2022-10-03T10:32:47.286Z,84.72
2022-10-03T10:35:59.207Z,84.05
2022-10-03T10:38:59.467Z,81.83
2022-10-03T10:42:19.250Z,81.61
2022-10-03T10:45:21.734Z,80.61
2022-10-03T10:48:31.987Z,80.08
2022-10-03T10:51:46.891Z,79.16
2022-10-03T10:54:51.135Z,80.30
2022-10-03T10:58:03.134Z,79.91
2022-10-03T11:01:00.573Z,78.44
2022-10-03T11:04:14.531Z,77.17
2022-10-03T11:07:17.231Z,75.66
2022-10-03T11:10:33.264Z,76.91
2022-10-03T11:13:49.871Z,75.70
2022-10-03T11:17:06.614Z,76.46
2022-10-03T11:20:19.915Z,76.10
2022-10-03T11:23:36.779Z,76.33
2022-10-03T11:26:54.617Z,75.88
2022-10-03T11:30:06.267Z,74.92
2022-10-03T11:33:15.279Z,76.00
2022-10-03T11:36:28.746Z,74.38
2022-10-03T11:39:04.660Z,70.29
2022-10-03T11:41:46.167Z,72.79
2022-10-03T11:44:27.702Z,70.00
2022-10-03T11:47:33.632Z,70.73
2022-10-03T11:50:37.847Z,71.82
2022-10-03T11:53:36.075Z,69.82
2022-10-03T11:56:36.150Z,70.51
2022-10-03T11:59:51.075Z,69.38
2022-10-03T12:02:54.030Z,69.83
2022-10-03T12:05:41.907Z,70.29
2022-10-03T12:08:39.806Z,70.43
2022-10-03T12:11:18.797Z,69.45
2022-10-03T12:14:10.853Z,69.81
2022-10-03T12:17:05.391Z,70.90
2022-10-03T12:19:46.595Z,71.20
2022-10-03T12:22:35.620Z,70.71
2022-10-03T12:25:19.385Z,70.45
2022-10-03T12:28:10.595Z,69.02
2022-10-03T12:30:49.201Z,67.73
2022-10-03T12:33:35.420Z,69.42
2022-10-03T12:36:13.163Z,67.64
2022-10-03T12:39:13.491Z,68.70
2022-10-03T12:42:07.542Z,69.77
2022-10-03T12:44:49.725Z,66.42
2022-10-03T12:47:54.196Z,69.47
2022-10-03T12:50:38.590Z,62.75
2022-10-03T12:53:24.681Z,59.73
2022-10-03T12:56:13.777Z,58.61
2022-10-03T12:58:53.702Z,58.53
2022-10-03T13:01:44.028Z,56.77
2022-10-03T13:04:30.714Z,56.00
2022-10-03T13:07:17.727Z,58.57
2022-10-03T13:10:14.466Z,58.14
2022-10-03T13:12:52.394Z,55.22
2022-10-03T13:16:01.370Z,55.49
2022-10-03T13:18:43.302Z,54.53
2022-10-03T13:21:44.553Z,56.15
2022-10-03T13:24:25.838Z,55.06
2022-10-03T13:27:10.406Z,56.91
2022-10-03T13:29:45.490Z,55.42
2022-10-03T13:32:28.232Z,55.63
2022-10-03T13:35:34.205Z,59.31
2022-10-03T13:38:20.025Z,58.96
2022-10-03T13:41:00.313Z,55.26
2022-10-03T13:43:37.155Z,54.76
2022-10-03T13:46:17.193Z,56.75
2022-10-03T13:48:59.724Z,55.81
2022-10-03T13:51:44.598Z,55.03
2022-10-03T13:54:28.179Z,54.51
2022-10-03T13:57:11.406Z,54.12
2022-10-03T14:00:03.516Z,54.65
2022-10-03T14:02:59.148Z,54.54
2022-10-03T14:05:52.491Z,52.85
2022-10-03T14:08:51.346Z,54.16
2022-10-03T14:11:32.043Z,50.72
2022-10-03T14:14:40.228Z,53.65
2022-10-03T14:17:17.846Z,53.60
2022-10-03T14:20:05.571Z,53.74
2022-10-03T14:22:50.109Z,54.06
2022-10-03T14:25:25.746Z,52.96
2022-10-03T14:28:07.301Z,54.42
2022-10-03T14:31:05.438Z,55.24
2022-10-03T14:33:46.483Z,52.53
2022-10-03T14:36:35.492Z,54.38
2022-10-03T14:39:32.311Z,50.85
2022-10-03T14:42:29.339Z,50.90
2022-10-03T14:45:07.837Z,53.21
2022-10-03T14:47:47.086Z,53.70
2022-10-03T14:50:22.511Z,53.26
2022-10-03T14:53:01.687Z,54.28
2022-10-03T14:55:39.660Z,55.36
2022-10-03T14:58:19.872Z,55.84
2022-10-03T15:00:55.227Z,57.25
2022-10-03T15:03:32.654Z,59.47
2022-10-03T15:06:21.825Z,63.15
2022-10-03T15:08:57.542Z,63.87
2022-10-03T15:11:32.038Z,64.61
2022-10-03T15:14:08.706Z,65.29
2022-10-03T15:16:45.987Z,64.17
2022-10-03T15:19:22.822Z,63.90
2022-10-03T15:22:02.543Z,65.40
2022-10-03T15:24:35.489Z,64.30
2022-10-03T15:27:13.390Z,62.61
2022-10-03T15:29:46.801Z,61.28
2022-10-03T15:32:24.652Z,61.87
2022-10-03T15:35:00.507Z,62.05
2022-10-03T15:37:38.729Z,63.93
2022-10-03T15:40:21.916Z,63.20
2022-10-03T15:43:03.539Z,63.25
2022-10-03T15:45:37.305Z,64.35
2022-10-03T15:48:16.253Z,64.82
2022-10-03T15:50:52.164Z,64.72
2022-10-03T15:53:41.420Z,64.51
2022-10-03T15:56:18.218Z,65.68
2022-10-03T15:58:54.511Z,66.10
2022-10-03T16:01:29.634Z,67.01
2022-10-03T16:04:05.452Z,66.44
2022-10-03T16:06:47.142Z,66.03
2022-10-03T16:09:26.700Z,65.32
2022-10-03T16:12:24.854Z,67.47
2022-10-03T16:15:17.422Z,67.53
2022-10-03T16:17:54.820Z,68.37
2022-10-03T16:20:35.016Z,69.58
2022-10-03T16:23:17.053Z,70.20
2022-10-03T16:25:54.603Z,70.83
2022-10-03T16:28:33.335Z,72.25
2022-10-03T16:31:12.652Z,73.95
2022-10-03T16:33:54.615Z,74.24
2022-10-03T16:36:39.970Z,73.97
2022-10-03T16:39:20.573Z,73.97
2022-10-03T16:41:54.635Z,74.29
2022-10-03T16:44:39.015Z,75.05
2022-10-03T16:47:11.724Z,74.59
2022-10-03T16:50:08.253Z,75.50
2022-10-03T16:52:43.356Z,75.33
2022-10-03T16:55:21.663Z,76.17
2022-10-03T16:57:56.909Z,74.72
2022-10-03T17:00:37.996Z,74.78
2022-10-03T17:03:18.542Z,75.27
2022-10-03T17:05:54.416Z,75.65
2022-10-03T17:08:41.729Z,76.76
2022-10-03T17:11:20.062Z,75.62
2022-10-03T17:13:55.062Z,74.17
2022-10-03T17:16:38.851Z,74.92
2022-10-03T17:19:19.170Z,73.34
2022-10-03T17:21:54.115Z,73.83
2022-10-03T17:24:42.679Z,74.93
2022-10-03T17:27:24.734Z,73.93
2022-10-03T17:30:01.969Z,72.72
2022-10-03T17:32:38.141Z,72.71
2022-10-03T17:35:15.166Z,74.68
2022-10-03T17:38:44.976Z,74.79
2022-10-03T17:41:20.825Z,73.58
2022-10-03T17:44:03.411Z,73.41
2022-10-03T17:46:40.786Z,73.33
2022-10-03T17:49:24.351Z,72.83
2022-10-03T17:51:57.923Z,72.39
2022-10-03T17:54:33.443Z,71.90
2022-10-03T17:57:13.659Z,73.04
2022-10-03T17:59:54.650Z,74.07
2022-10-03T18:02:35.949Z,74.12
2022-10-03T18:05:14.348Z,76.33
2022-10-03T18:07:51.914Z,76.36
2022-10-03T18:10:28.332Z,75.07
2022-10-03T18:13:06.757Z,74.96
2022-10-03T18:16:02.857Z,74.81
2022-10-03T18:18:52.472Z,73.60
2022-10-03T18:21:37.309Z,74.80
2022-10-03T18:24:23.546Z,75.12
2022-10-03T18:27:07.922Z,76.74
2022-10-03T18:29:49.627Z,76.33
2022-10-03T18:32:24.702Z,76.93
2022-10-03T18:35:08.530Z,77.86
2022-10-03T18:37:54.707Z,78.45
2022-10-03T18:40:30.130Z,76.49
2022-10-03T18:43:05.265Z,76.33
2022-10-03T18:45:44.829Z,75.04
2022-10-03T18:48:26.162Z,74.54
2022-10-03T18:51:09.253Z,72.18
2022-10-03T18:53:46.668Z,71.20
2022-10-03T18:56:23.341Z,70.08
2022-10-03T18:59:15.113Z,71.92
2022-10-03T19:01:53.552Z,68.02
2022-10-03T19:04:39.943Z,68.25
2022-10-03T19:07:20.518Z,69.60
2022-10-03T19:10:25.449Z,72.08
2022-10-03T19:13:04.068Z,69.71
2022-10-03T19:16:17.911Z,70.25
2022-10-03T19:19:01.288Z,70.61
2022-10-03T19:21:37.278Z,69.96
2022-10-03T19:24:16.811Z,69.38
2022-10-03T19:26:53.651Z,70.21
2022-10-03T19:29:30.772Z,70.47
2022-10-03T19:32:07.483Z,71.87
2022-10-03T19:34:43.507Z,71.21
2022-10-03T19:37:18.687Z,70.67
2022-10-03T19:39:51.288Z,72.45
2022-10-03T19:42:32.658Z,70.25
2022-10-03T19:45:11.372Z,70.66
2022-10-03T19:47:50.571Z,71.67
2022-10-03T19:50:28.646Z,70.88
2022-10-03T19:53:11.230Z,70.91
2022-10-03T19:55:45.341Z,71.04
2022-10-03T19:58:24.185Z,71.93
2022-10-03T20:00:58.786Z,70.63
2022-10-03T20:03:38.223Z,72.73
2022-10-03T20:06:35.799Z,73.74
2022-10-03T20:09:21.275Z,73.04
2022-10-03T20:11:58.724Z,71.92
2022-10-03T20:14:34.456Z,72.34
2022-10-03T20:17:12.518Z,71.97
2022-10-03T20:19:53.855Z,72.32
2022-10-03T20:22:30.675Z,72.85
2022-10-03T20:25:06.221Z,73.09
2022-10-03T20:27:44.803Z,73.50
2022-10-03T20:30:25.147Z,72.86
2022-10-03T20:32:59.160Z,73.33
2022-10-03T20:35:44.306Z,73.29
2022-10-03T20:38:26.657Z,73.62
2022-10-03T20:41:25.123Z,74.34
2022-10-03T20:44:07.913Z,72.67
2022-10-03T20:46:44.583Z,73.80
2022-10-03T20:49:27.667Z,74.71
2022-10-03T20:52:01.789Z,74.13
2022-10-03T20:54:46.031Z,75.05
2022-10-03T20:57:21.318Z,74.90
2022-10-03T21:00:03.571Z,74.64
2022-10-03T21:02:41.440Z,74.69
2022-10-03T21:05:22.365Z,75.82
2022-10-03T21:07:57.853Z,77.15
2022-10-03T21:10:36.005Z,76.47
2022-10-03T21:13:14.956Z,76.00
2022-10-03T21:15:50.566Z,75.88
2022-10-03T21:18:26.419Z,75.53
2022-10-03T21:21:08.367Z,76.57
2022-10-03T21:23:46.612Z,76.79
2022-10-03T21:26:24.673Z,75.50
2022-10-03T21:29:16.239Z,76.03
2022-10-03T21:31:56.980Z,76.52
2022-10-03T21:34:34.339Z,74.93
2022-10-03T21:37:16.061Z,74.80
2022-10-03T21:40:04.435Z,76.40
2022-10-03T21:42:52.842Z,75.68
2022-10-03T21:45:32.291Z,74.94
2022-10-03T21:48:14.325Z,75.90
2022-10-03T21:50:53.317Z,76.39
2022-10-03T21:53:35.991Z,76.87
2022-10-03T21:56:32.524Z,75.77
2022-10-03T21:59:28.143Z,75.91
2022-10-03T22:02:08.051Z,76.09
2022-10-03T22:04:45.313Z,77.57
2022-10-03T22:07:27.729Z,76.83
2022-10-03T22:10:00.044Z,78.16
2022-10-03T22:12:41.516Z,77.93
2022-10-03T22:15:22.800Z,76.22
2022-10-03T22:17:59.144Z,77.16
2022-10-03T22:20:33.832Z,77.37
2022-10-03T22:23:23.951Z,77.37
2022-10-03T22:26:14.847Z,77.35
2022-10-03T22:28:55.200Z,78.30
2022-10-03T22:31:36.471Z,78.49
2022-10-03T22:34:26.164Z,77.09
2022-10-03T22:36:59.524Z,76.42
2022-10-03T22:39:34.782Z,77.78
2022-10-03T22:42:07.263Z,76.20
2022-10-03T22:44:43.782Z,76.63
2022-10-03T22:47:21.978Z,74.88
2022-10-03T22:49:59.202Z,75.21
2022-10-03T22:52:36.322Z,75.26
2022-10-03T22:55:12.846Z,75.21
2022-10-03T22:57:46.116Z,74.30
2022-10-03T23:00:22.755Z,75.69
2022-10-03T23:03:04.277Z,75.72
2022-10-03T23:06:03.891Z,75.80
2022-10-03T23:08:47.279Z,74.38
2022-10-03T23:11:22.640Z,73.58
2022-10-03T23:13:57.030Z,75.33
2022-10-03T23:16:43.761Z,76.12
2022-10-03T23:19:40.320Z,75.42
2022-10-03T23:22:15.981Z,75.43
2022-10-03T23:24:54.244Z,75.32
2022-10-03T23:28:09.850Z,73.79
2022-10-03T23:30:47.460Z,74.82
2022-10-03T23:33:48.836Z,75.60
2022-10-03T23:36:24.138Z,75.10
2022-10-03T23:39:00.574Z,75.42
2022-10-03T23:41:57.735Z,76.34
2022-10-03T23:44:49.287Z,75.63
2022-10-03T23:47:27.411Z,76.17
2022-10-03T23:50:02.199Z,76.33
2022-10-03T23:52:41.911Z,75.92
2022-10-03T23:55:17.694Z,75.03
2022-10-03T23:57:50.383Z,75.28
